createdAt,value
2019-03-18T00:00:26.997Z,44.27
2019-03-18T00:05:24.077Z,43.79
2019-03-18T00:10:21.186Z,43.06
2019-03-18T00:15:18.230Z,42.34
2019-03-18T00:20:16.103Z,41.90
2019-03-18T00:25:14.454Z,42.20
2019-03-18T00:30:15.005Z,41.78
2019-03-18T00:35:12.443Z,41.60
2019-03-18T00:40:15.880Z,41.42
2019-03-18T00:45:15.094Z,41.72
2019-03-18T00:50:13.829Z,40.85
2019-03-18T00:55:11.005Z,40.49
2019-03-18T01:00:13.414Z,40.51
2019-03-18T01:05:10.762Z,40.20
2019-03-18T01:10:12.633Z,40.02
2019-03-18T01:15:10.715Z,39.99
2019-03-18T01:20:09.993Z,40.11
2019-03-18T01:25:08.760Z,39.90
2019-03-18T01:30:11.658Z,40.35
2019-03-18T01:35:09.463Z,40.52
2019-03-18T01:40:14.298Z,40.21
2019-03-18T01:45:12.282Z,39.99
2019-03-18T01:50:11.484Z,40.16
2019-03-18T01:55:09.326Z,39.85
2019-03-18T02:00:12.523Z,39.98
2019-03-18T02:05:10.302Z,40.00
2019-03-18T02:10:10.916Z,39.52
2019-03-18T02:15:10.524Z,39.46
2019-03-18T02:20:10.935Z,39.25
2019-03-18T02:25:09.320Z,39.52
2019-03-18T02:30:18.243Z,39.03
2019-03-18T02:35:15.628Z,39.26
2019-03-18T02:40:12.710Z,39.92
2019-03-18T02:45:10.549Z,40.74
2019-03-18T02:50:09.087Z,39.69
2019-03-18T02:55:07.490Z,39.23
2019-03-18T03:00:11.335Z,39.19
2019-03-18T03:05:10.623Z,39.11
2019-03-18T03:10:10.488Z,38.98
2019-03-18T03:15:13.307Z,38.59
2019-03-18T03:20:10.796Z,38.60
2019-03-18T03:25:09.491Z,38.52
2019-03-18T03:30:13.624Z,38.71
2019-03-18T03:35:10.912Z,39.13
2019-03-18T03:40:10.185Z,39.10
2019-03-18T03:45:10.531Z,39.50
2019-03-18T03:50:11.706Z,39.75
2019-03-18T03:55:10.772Z,40.10
2019-03-18T04:00:11.081Z,40.33
2019-03-18T04:05:08.431Z,40.84
2019-03-18T04:10:12.545Z,45.58
2019-03-18T04:15:14.721Z,46.71
2019-03-18T04:20:16.013Z,49.19
2019-03-18T04:25:13.155Z,50.59
2019-03-18T04:30:14.356Z,51.69
2019-03-18T04:35:11.396Z,52.70
2019-03-18T04:40:09.939Z,53.35
2019-03-18T04:45:08.814Z,54.29
2019-03-18T04:50:09.268Z,54.64
2019-03-18T04:55:08.044Z,54.39
2019-03-18T05:00:12.471Z,54.69
2019-03-18T05:05:11.524Z,54.44
2019-03-18T05:10:09.465Z,54.68
2019-03-18T05:15:08.710Z,54.27
2019-03-18T05:20:10.528Z,54.72
2019-03-18T05:25:08.915Z,54.25
2019-03-18T05:30:13.200Z,54.31
2019-03-18T05:35:10.335Z,54.11
2019-03-18T05:40:07.774Z,54.23
2019-03-18T05:45:10.150Z,53.91
2019-03-18T05:50:11.948Z,53.91
2019-03-18T05:55:09.302Z,54.14
2019-03-18T06:00:12.509Z,53.82
2019-03-18T06:05:11.534Z,53.08
2019-03-18T06:10:11.182Z,53.03
2019-03-18T06:15:10.978Z,53.77
2019-03-18T06:20:09.714Z,53.11
2019-03-18T06:25:07.915Z,53.00
2019-03-18T06:30:16.571Z,52.75
2019-03-18T06:35:15.343Z,53.20
2019-03-18T06:40:15.230Z,53.35
2019-03-18T06:45:12.379Z,53.14
2019-03-18T06:50:10.797Z,52.83
2019-03-18T06:55:07.948Z,52.98
2019-03-18T07:00:10.371Z,53.50
2019-03-18T07:05:08.775Z,53.58
2019-03-18T07:10:11.098Z,53.45
2019-03-18T07:15:14.790Z,53.83
2019-03-18T07:20:14.807Z,54.08
2019-03-18T07:25:13.735Z,54.29
2019-03-18T07:30:14.338Z,54.37
2019-03-18T07:35:16.603Z,54.79
2019-03-18T07:40:15.215Z,54.88
2019-03-18T07:45:15.641Z,55.25
2019-03-18T07:50:16.196Z,55.75
2019-03-18T07:55:17.492Z,55.89
2019-03-18T08:00:17.848Z,56.60
2019-03-18T08:05:15.030Z,57.36
2019-03-18T08:10:14.973Z,58.20
2019-03-18T08:15:14.730Z,58.06
2019-03-18T08:20:17.287Z,58.51
2019-03-18T08:25:14.371Z,58.82
2019-03-18T08:30:20.641Z,58.47
2019-03-18T08:35:19.581Z,58.67
2019-03-18T08:40:16.736Z,57.89
2019-03-18T08:45:13.784Z,56.88
2019-03-18T08:50:12.881Z,57.25
2019-03-18T08:55:13.616Z,57.39
2019-03-18T09:00:15.204Z,57.49
2019-03-18T09:05:14.171Z,56.84
2019-03-18T09:10:15.284Z,56.78
2019-03-18T09:15:12.584Z,57.13
2019-03-18T09:20:13.218Z,56.73
2019-03-18T09:25:10.985Z,57.37
2019-03-18T09:30:15.058Z,57.61
2019-03-18T09:35:12.729Z,56.40
2019-03-18T09:40:15.537Z,56.40
2019-03-18T09:45:16.977Z,55.45
2019-03-18T09:50:14.977Z,56.84
2019-03-18T09:55:12.203Z,56.73
2019-03-18T10:00:15.451Z,57.13
2019-03-18T10:05:12.753Z,57.16
2019-03-18T10:10:16.319Z,57.52
2019-03-18T10:15:20.329Z,58.03
2019-03-18T10:20:17.275Z,57.78
2019-03-18T10:25:14.405Z,57.59
2019-03-18T10:30:13.252Z,58.03
2019-03-18T10:35:13.591Z,59.05
2019-03-18T10:40:13.400Z,58.71
2019-03-18T10:45:11.864Z,58.80
2019-03-18T10:50:13.875Z,58.82
2019-03-18T10:55:11.759Z,58.55
2019-03-18T11:00:17.841Z,58.21
2019-03-18T11:05:21.277Z,56.06
2019-03-18T11:10:18.325Z,58.34
2019-03-18T11:15:18.518Z,57.94
2019-03-18T11:20:17.483Z,58.05
2019-03-18T11:25:15.875Z,58.42
2019-03-18T11:30:16.010Z,57.34
2019-03-18T11:35:16.900Z,57.14
2019-03-18T11:40:20.013Z,56.93
2019-03-18T11:45:17.357Z,57.22
2019-03-18T11:50:18.721Z,58.00
2019-03-18T11:55:29.039Z,56.87
2019-03-18T12:00:26.090Z,56.96
2019-03-18T12:05:27.274Z,57.40
2019-03-18T12:10:42.900Z,57.05
2019-03-18T12:15:44.715Z,56.67
2019-03-18T12:20:47.903Z,55.13
2019-03-18T12:25:40.722Z,56.17
2019-03-18T12:30:37.853Z,56.70
2019-03-18T12:35:44.030Z,57.17
2019-03-18T12:40:41.096Z,56.82
2019-03-18T12:45:39.752Z,56.60
2019-03-18T12:50:54.462Z,57.24
2019-03-18T12:55:36.211Z,57.62
2019-03-18T13:00:34.347Z,57.55
2019-03-18T13:05:38.156Z,57.33
2019-03-18T13:10:36.799Z,56.71
2019-03-18T13:15:35.824Z,55.54
2019-03-18T13:20:41.368Z,56.00
2019-03-18T13:25:38.982Z,56.17
2019-03-18T13:30:36.175Z,55.71
2019-03-18T13:35:33.529Z,55.37
2019-03-18T13:40:30.703Z,55.50
2019-03-18T13:45:34.500Z,55.06
2019-03-18T13:50:34.064Z,54.70
2019-03-18T13:55:37.524Z,55.79
2019-03-18T14:00:39.187Z,55.94
2019-03-18T14:05:37.397Z,57.15
2019-03-18T14:10:36.977Z,57.63
2019-03-18T14:15:40.091Z,57.30
2019-03-18T14:21:33.361Z,57.09
2019-03-18T14:25:59.198Z,57.94
2019-03-18T14:30:56.338Z,58.13
2019-03-18T14:35:54.732Z,57.93
2019-03-18T14:40:53.798Z,57.65
2019-03-18T14:45:54.825Z,58.10
2019-03-18T14:50:52.082Z,57.32
2019-03-18T14:55:54.545Z,58.44
2019-03-18T15:00:51.828Z,59.08
2019-03-18T15:05:49.343Z,58.64
2019-03-18T15:10:46.559Z,58.92
2019-03-18T15:16:01.166Z,58.89
2019-03-18T15:20:58.881Z,58.81
2019-03-18T15:26:44.846Z,59.44
2019-03-18T15:32:13.778Z,60.09
2019-03-18T15:37:14.656Z,60.68
2019-03-18T15:42:50.103Z,60.82
2019-03-18T15:48:29.517Z,61.30
2019-03-18T15:53:32.421Z,62.29
2019-03-18T15:59:05.781Z,62.45
2019-03-18T16:03:55.891Z,62.65
2019-03-18T16:09:02.890Z,62.11
2019-03-18T16:20:07.360Z,62.41
2019-03-18T16:25:10.714Z,63.41
2019-03-18T16:36:47.853Z,63.56
2019-03-18T16:41:41.675Z,63.65
2019-03-18T16:47:53.071Z,62.73
2019-03-18T16:58:06.011Z,62.25
2019-03-18T17:09:30.245Z,61.92
2019-03-18T17:14:39.234Z,61.39
2019-03-18T17:20:06.701Z,61.31
2019-03-18T17:25:11.406Z,61.63
2019-03-18T17:30:22.448Z,60.53
2019-03-18T17:41:10.939Z,60.16
2019-03-18T17:57:47.912Z,60.81
2019-03-18T18:02:52.954Z,61.18
2019-03-18T18:07:53.665Z,60.49
2019-03-18T18:12:54.639Z,60.47
2019-03-18T18:17:57.109Z,60.64
2019-03-18T18:23:14.668Z,60.98
2019-03-18T18:28:20.714Z,61.14
2019-03-18T18:33:29.605Z,61.54
2019-03-18T19:38:57.727Z,61.80
2019-03-18T19:51:05.048Z,61.67
2019-03-18T20:08:32.559Z,59.42
2019-03-18T22:00:50.968Z,59.30
2019-03-18T22:13:02.961Z,59.43
2019-03-18T23:17:06.806Z,61.25
